Flying Cat 3 — SX6671 — position and weather

sailwx.info

Track history (hours):
 
Tides and Currents Weather Stations Pressure Air Temp Water Temp Dewpoint Dewpoint Depression Visibility Wind Speed Wind Dir Waves Ship Positions

Flying Cat 3

Last reported at 2016-Aug-26 09:33 UTC. Time now 2016-Aug-26 10:17 UTC.
Position N 37°57' E 023°39'.

Length 48 m; draft 1.5 m.

Type: High speed craft. MMSI: 239552000.

Date/timePositionNaut miles runAvg speedWind from/ knotsBaromVisibWave heightAir tempDewpointWater temp
2016-Aug-26 09:33N 37°57' E 023°39'0 0.0
2016-Aug-26 08:32N 37°57' E 023°39'0 0.0
2016-Aug-26 07:32N 37°57' E 023°39'0 0.0
2016-Aug-26 06:32N 37°57' E 023°39'0 0.0
2016-Aug-26 04:32N 37°57' E 023°39'0 0.0
2016-Aug-26 03:32N 37°57' E 023°39'0 0.0
2016-Aug-26 02:32N 37°57' E 023°39'0 0.0
2016-Aug-26 01:32N 37°57' E 023°39'0 0.0
2016-Aug-26 00:32N 37°57' E 023°39'0 0.0
2016-Aug-25 23:32N 37°57' E 023°39'0 0.0
2016-Aug-25 22:32N 37°57' E 023°39'0 0.0
2016-Aug-25 21:32N 37°57' E 023°39'0 0.0
2016-Aug-25 20:32N 37°57' E 023°39'0 0.0
2016-Aug-25 19:32N 37°57' E 023°39'0 0.0
2016-Aug-25 18:29N 37°57' E 023°39'0 0.0
2016-Aug-25 17:32N 37°57' E 023°39'0 0.0
2016-Aug-25 16:32N 37°57' E 023°39'0 0.1
2016-Aug-25 15:34N 37°57' E 023°38'2827.7
2016-Aug-25 14:33N 37°30' E 023°26'1110.8
2016-Aug-25 13:31N 37°20' E 023°22'6 5.5
2016-Aug-25 12:25N 37°23' E 023°16'1214.0
2016-Aug-25 11:33N 37°30' E 023°29'2020.6
2016-Aug-25 10:34N 37°49' E 023°35'8 7.7
2016-Aug-25 09:33N 37°57' E 023°39'3725.5
2016-Aug-25 08:07N 37°21' E 023°28'16 8.1
2016-Aug-25 06:11N 37°36' E 023°33'2111.5
2016-Aug-25 04:23N 37°57' E 023°39'0 0.0
2016-Aug-25 03:32N 37°57' E 023°39'0 0.0
2016-Aug-25 02:32N 37°57' E 023°39'0 0.0
2016-Aug-25 01:26N 37°57' E 023°39'0 0.0
2016-Aug-25 00:32N 37°57' E 023°39'0 0.0
2016-Aug-24 23:32N 37°57' E 023°39'0 0.0
2016-Aug-24 22:29N 37°57' E 023°39'0 0.0
2016-Aug-24 21:32N 37°57' E 023°39'0 0.0
2016-Aug-24 20:32N 37°57' E 023°39'0 0.0
2016-Aug-24 19:29N 37°57' E 023°39'0 0.0
2016-Aug-24 18:29N 37°57' E 023°39'0 0.0
2016-Aug-24 17:29N 37°57' E 023°39'0 0.0
2016-Aug-24 16:32N 37°57' E 023°39'0 0.0
2016-Aug-24 15:33N 37°57' E 023°39'2826.8
2016-Aug-24 14:30N 37°30' E 023°27'1211.5
2016-Aug-24 13:30N 37°19' E 023°21'3 2.7
2016-Aug-24 12:19N 37°22' E 023°20'1013.2
2016-Aug-24 11:32N 37°29' E 023°30'2121.4
2016-Aug-24 10:34N 37°49' E 023°35'8 7.5
2016-Aug-24 09:33N 37°57' E 023°39'20 6.1
2016-Aug-24 06:11N 37°36' E 023°34'2012.2
2016-Aug-24 04:30N 37°57' E 023°39'0 0.0
2016-Aug-24 03:33N 37°57' E 023°39'0 0.0
2016-Aug-24 02:33N 37°57' E 023°39'0 0.0
2016-Aug-24 01:33N 37°57' E 023°39'0 0.0
2016-Aug-24 00:33N 37°57' E 023°39'0 0.0
2016-Aug-23 23:33N 37°57' E 023°39'0 0.0
2016-Aug-23 22:33N 37°57' E 023°39'0 0.0
2016-Aug-23 21:33N 37°57' E 023°39'0 0.0
2016-Aug-23 20:33N 37°57' E 023°39'0 0.0
2016-Aug-23 19:33N 37°57' E 023°39'0 0.0
2016-Aug-23 18:33N 37°57' E 023°39'0 0.0
2016-Aug-23 17:33N 37°57' E 023°39'0 0.0
2016-Aug-23 16:30N 37°57' E 023°39'0 0.0
2016-Aug-23 15:33N 37°57' E 023°39'2826.7
2016-Aug-23 14:30N 37°30' E 023°27'9 4.2
2016-Aug-23 12:18N 37°22' E 023°21'1012.9
2016-Aug-23 11:32N 37°29' E 023°29'2222.1
2016-Aug-23 10:33N 37°50' E 023°36'6 6.1
2016-Aug-23 09:34N 37°56' E 023°38'22 6.6
2016-Aug-23 06:17N 37°35' E 023°34'2229.4
2016-Aug-23 05:32N 37°57' E 023°39'0 0.0
2016-Aug-23 03:08N 37°57' E 023°39'0 0.0
2016-Aug-23 00:26N 37°57' E 023°39'0 0.0
2016-Aug-22 23:32N 37°57' E 023°39'0 0.0
2016-Aug-22 22:32N 37°57' E 023°39'0 0.0
2016-Aug-22 21:26N 37°57' E 023°39'0 0.0
2016-Aug-22 20:32N 37°57' E 023°39'0 0.0
2016-Aug-22 19:32N 37°57' E 023°39'0 0.0
2016-Aug-22 18:32N 37°57' E 023°39'0 0.0
2016-Aug-22 17:32N 37°57' E 023°39'0 0.0
2016-Aug-22 16:32N 37°57' E 023°39'0 0.0
2016-Aug-22 15:33N 37°57' E 023°39'2827.7
2016-Aug-22 14:33N 37°30' E 023°27'9 3.9
2016-Aug-22 12:17N 37°23' E 023°21'912.6
2016-Aug-22 11:33N 37°29' E 023°29'2121.4
2016-Aug-22 10:34N 37°50' E 023°36'7 7.2
2016-Aug-22 09:33N 37°57' E 023°39'2928.2
2016-Aug-22 08:32N 37°28' E 023°33'2 1.0
2016-Aug-22 06:28N 37°26' E 023°33'3133.8
2016-Aug-22 05:33N 37°56' E 023°38'0 0.4
2016-Aug-22 04:33N 37°57' E 023°39'0 0.0
2016-Aug-22 03:33N 37°57' E 023°39'0 0.0
2016-Aug-22 02:33N 37°57' E 023°39'0 0.0
2016-Aug-22 01:33N 37°57' E 023°39'0 0.0
2016-Aug-22 00:33N 37°57' E 023°39'0 0.0
2016-Aug-21 23:33N 37°57' E 023°39'0 0.0
2016-Aug-21 22:27N 37°57' E 023°39'0 0.0
2016-Aug-21 21:33N 37°57' E 023°39'0 0.0
2016-Aug-21 20:33N 37°57' E 023°39'0 0.0
2016-Aug-21 19:33N 37°57' E 023°39'7 7.5
2016-Aug-21 18:34N 37°50' E 023°36'2929.2
2016-Aug-21 17:34N 37°21' E 023°28'2 1.5
2016-Aug-21 16:21N 37°21' E 023°26'2126.0
2016-Aug-21 15:33N 37°41' E 023°33'1716.5
2016-Aug-21 14:33N 37°57' E 023°39'2423.7
2016-Aug-21 13:33N 37°35' E 023°27'1413.4
2016-Aug-21 12:33N 37°21' E 023°28'6 4.0
2016-Aug-21 11:04N 37°19' E 023°21'1218.4
2016-Aug-21 10:25N 37°27' E 023°33'1416.8
2016-Aug-21 09:33N 37°41' E 023°32'1616.3
2016-Aug-21 08:33N 37°57' E 023°39'0 0.0
2016-Aug-21 07:28N 37°57' E 023°39'0 0.0
2016-Aug-21 06:28N 37°57' E 023°39'0 0.0
2016-Aug-21 05:31N 37°57' E 023°39'0 0.0
2016-Aug-21 04:31N 37°57' E 023°39'0 0.0
2016-Aug-21 03:31N 37°57' E 023°39'0 0.0
2016-Aug-21 02:28N 37°57' E 023°39'0 0.0
2016-Aug-21 01:31N 37°57' E 023°39'0 0.0
2016-Aug-21 00:31N 37°57' E 023°39'0 0.0
2016-Aug-20 23:31N 37°57' E 023°39'0 0.0
2016-Aug-20 22:31N 37°57' E 023°39'0 0.0
2016-Aug-20 21:28N 37°57' E 023°39'0 0.0
2016-Aug-20 20:28N 37°57' E 023°39'0 0.0
2016-Aug-20 19:31N 37°57' E 023°39'0 0.0
2016-Aug-20 18:28N 37°57' E 023°39'0 0.0
2016-Aug-20 17:31N 37°57' E 023°39'0 0.0
2016-Aug-20 16:31N 37°57' E 023°39'0 0.0
2016-Aug-20 15:33N 37°57' E 023°39'2827.5
2016-Aug-20 14:32N 37°30' E 023°27'9 2.6
2016-Aug-20 11:10N 37°37' E 023°34'2033.1
2016-Aug-20 10:33N 37°56' E 023°38'0 0.2
2016-Aug-20 09:33N 37°57' E 023°38'3630.9
2016-Aug-20 08:23N 37°21' E 023°28'13 6.4
2016-Aug-20 06:17N 37°34' E 023°34'2331.3
2016-Aug-20 05:33N 37°56' E 023°38'0 0.3
2016-Aug-20 04:29N 37°57' E 023°39'0 0.0
2016-Aug-20 03:29N 37°57' E 023°39'0 0.0
2016-Aug-20 02:32N 37°57' E 023°39'0 0.0
2016-Aug-20 01:32N 37°57' E 023°39'0 0.0
2016-Aug-20 00:32N 37°57' E 023°39'0 0.0
2016-Aug-19 23:29N 37°57' E 023°39'0 0.0
2016-Aug-19 22:29N 37°57' E 023°39'0 0.0
2016-Aug-19 21:32N 37°57' E 023°39'0 0.0
2016-Aug-19 20:29N 37°57' E 023°39'0 0.0
2016-Aug-19 19:32N 37°57' E 023°39'1010.5
2016-Aug-19 18:34N 37°47' E 023°36'2726.5
2016-Aug-19 17:33N 37°21' E 023°26'8 4.0
2016-Aug-19 15:28N 37°27' E 023°33'3032.4
2016-Aug-19 14:33N 37°56' E 023°38'1 0.5
2016-Aug-19 13:34N 37°57' E 023°39'2823.6
2016-Aug-19 12:22N 37°30' E 023°27'4 3.6
2016-Aug-19 11:23N 37°28' E 023°31'1417.0
2016-Aug-19 10:33N 37°42' E 023°32'1615.5
2016-Aug-19 09:33N 37°57' E 023°39'0 0.0
2016-Aug-19 08:31N 37°57' E 023°39'0 0.0
2016-Aug-19 07:28N 37°57' E 023°39'0 0.0
2016-Aug-19 06:31N 37°57' E 023°39'0 0.0
2016-Aug-19 05:28N 37°57' E 023°39'0 0.0
2016-Aug-19 04:25N 37°57' E 023°39'0 0.0
2016-Aug-19 03:31N 37°57' E 023°39'0 0.0
2016-Aug-19 02:31N 37°57' E 023°39'0 0.0
2016-Aug-19 01:28N 37°57' E 023°39'0 0.0
2016-Aug-19 00:31N 37°57' E 023°39'0 0.0
2016-Aug-18 23:31N 37°57' E 023°39'0 0.0
2016-Aug-18 22:31N 37°57' E 023°39'0 0.0
2016-Aug-18 21:31N 37°57' E 023°39'0 0.0
2016-Aug-18 20:31N 37°57' E 023°39'0 0.0
2016-Aug-18 19:31N 37°57' E 023°39'0 0.0
2016-Aug-18 18:28N 37°57' E 023°39'0 0.0
2016-Aug-18 17:25N 37°57' E 023°39'0 0.0
2016-Aug-18 16:28N 37°57' E 023°39'0 0.0
2016-Aug-18 15:33N 37°57' E 023°39'2827.5
2016-Aug-18 14:32N 37°30' E 023°27'9 3.8
2016-Aug-18 12:16N 37°22' E 023°23'912.3
2016-Aug-18 11:33N 37°29' E 023°30'2222.4
2016-Aug-18 10:33N 37°50' E 023°36'7 6.5
2016-Aug-18 09:34N 37°57' E 023°39'3431.5
2016-Aug-18 08:30N 37°24' E 023°31'3 1.6
2016-Aug-18 06:28N 37°26' E 023°33'3133.5
2016-Aug-18 05:34N 37°56' E 023°38'0 0.3
2016-Aug-18 04:28N 37°57' E 023°39'0 0.0
2016-Aug-18 03:28N 37°57' E 023°39'0 0.0
2016-Aug-18 02:31N 37°57' E 023°39'0 0.0
2016-Aug-18 01:28N 37°57' E 023°39'0 0.0
2016-Aug-18 00:31N 37°57' E 023°39'0 0.0
2016-Aug-17 23:31N 37°57' E 023°39'0 0.0
2016-Aug-17 22:31N 37°57' E 023°39'0 0.0
2016-Aug-17 21:28N 37°57' E 023°39'0 0.0
2016-Aug-17 20:31N 37°57' E 023°39'0 0.0
2016-Aug-17 19:31N 37°57' E 023°39'0 0.0
2016-Aug-17 18:22N 37°57' E 023°39'0 0.0
2016-Aug-17 17:31N 37°57' E 023°39'0 0.0
2016-Aug-17 16:28N 37°57' E 023°39'0 0.0
2016-Aug-17 15:33N 37°57' E 023°39'2827.8
2016-Aug-17 14:33N 37°30' E 023°26'9 4.3
2016-Aug-17 12:25N 37°22' E 023°21'1010.9
2016-Aug-17 11:33N 37°29' E 023°30'2121.5
2016-Aug-17 10:34N 37°50' E 023°35'7 7.3
2016-Aug-17 09:33N 37°57' E 023°39'2827.7
2016-Aug-17 08:33N 37°29' E 023°33'4 1.9
2016-Aug-17 06:29N 37°25' E 023°32'3233.9
2016-Aug-17 05:33N 37°56' E 023°38'0 0.3
2016-Aug-17 04:28N 37°57' E 023°39'0 0.0
2016-Aug-17 03:31N 37°57' E 023°39'0 0.0
2016-Aug-17 02:31N 37°57' E 023°39'0 0.0
2016-Aug-17 01:31N 37°57' E 023°39'0 0.0
2016-Aug-17 00:31N 37°57' E 023°39'0 0.0
2016-Aug-16 23:31N 37°57' E 023°39'0 0.0
2016-Aug-16 22:28N 37°57' E 023°39'0 0.0
2016-Aug-16 21:31N 37°57' E 023°39'0 0.0
2016-Aug-16 20:28N 37°57' E 023°39'0 0.0
2016-Aug-16 19:28N 37°57' E 023°39'0 0.0
2016-Aug-16 18:31N 37°57' E 023°39'0 0.0
2016-Aug-16 17:31N 37°57' E 023°39'0 0.0
2016-Aug-16 16:31N 37°57' E 023°39'0 0.0
2016-Aug-16 15:33N 37°57' E 023°39'2827.7
2016-Aug-16 14:33N 37°30' E 023°26'9 3.9
2016-Aug-16 12:15N 37°22' E 023°22'913.0
2016-Aug-16 11:33N 37°29' E 023°29'2121.1
2016-Aug-16 10:33N 37°49' E 023°36'8 7.5
2016-Aug-16 09:34N 37°57' E 023°39'  
Track history (hours):
 
Tides and Currents Weather Stations Pressure Air Temp Water Temp Dewpoint Dewpoint Depression Visibility Wind Speed Wind Dir Waves Ship Positions

Flying Cat 3

Last reported at 2016-Aug-26 09:33 UTC. Time now 2016-Aug-26 10:17 UTC.
Position N 37°57' E 023°39'.

Length 48 m; draft 1.5 m.

Type: High speed craft. MMSI: 239552000.

Date/timePositionNaut miles runAvg speedWind from/ knotsBaromVisibWave heightAir tempDewpointWater temp
2016-Aug-26 09:33N 37°57' E 023°39'0 0.0
2016-Aug-26 08:32N 37°57' E 023°39'0 0.0
2016-Aug-26 07:32N 37°57' E 023°39'0 0.0
2016-Aug-26 06:32N 37°57' E 023°39'0 0.0
2016-Aug-26 04:32N 37°57' E 023°39'0 0.0
2016-Aug-26 03:32N 37°57' E 023°39'0 0.0
2016-Aug-26 02:32N 37°57' E 023°39'0 0.0
2016-Aug-26 01:32N 37°57' E 023°39'0 0.0
2016-Aug-26 00:32N 37°57' E 023°39'0 0.0
2016-Aug-25 23:32N 37°57' E 023°39'0 0.0
2016-Aug-25 22:32N 37°57' E 023°39'0 0.0
2016-Aug-25 21:32N 37°57' E 023°39'0 0.0
2016-Aug-25 20:32N 37°57' E 023°39'0 0.0
2016-Aug-25 19:32N 37°57' E 023°39'0 0.0
2016-Aug-25 18:29N 37°57' E 023°39'0 0.0
2016-Aug-25 17:32N 37°57' E 023°39'0 0.0
2016-Aug-25 16:32N 37°57' E 023°39'0 0.1
2016-Aug-25 15:34N 37°57' E 023°38'2827.7
2016-Aug-25 14:33N 37°30' E 023°26'1110.8
2016-Aug-25 13:31N 37°20' E 023°22'6 5.5
2016-Aug-25 12:25N 37°23' E 023°16'1214.0
2016-Aug-25 11:33N 37°30' E 023°29'2020.6
2016-Aug-25 10:34N 37°49' E 023°35'8 7.7
2016-Aug-25 09:33N 37°57' E 023°39'3725.5
2016-Aug-25 08:07N 37°21' E 023°28'16 8.1
2016-Aug-25 06:11N 37°36' E 023°33'2111.5
2016-Aug-25 04:23N 37°57' E 023°39'0 0.0
2016-Aug-25 03:32N 37°57' E 023°39'0 0.0
2016-Aug-25 02:32N 37°57' E 023°39'0 0.0
2016-Aug-25 01:26N 37°57' E 023°39'0 0.0
2016-Aug-25 00:32N 37°57' E 023°39'0 0.0
2016-Aug-24 23:32N 37°57' E 023°39'0 0.0
2016-Aug-24 22:29N 37°57' E 023°39'0 0.0
2016-Aug-24 21:32N 37°57' E 023°39'0 0.0
2016-Aug-24 20:32N 37°57' E 023°39'0 0.0
2016-Aug-24 19:29N 37°57' E 023°39'0 0.0
2016-Aug-24 18:29N 37°57' E 023°39'0 0.0
2016-Aug-24 17:29N 37°57' E 023°39'0 0.0
2016-Aug-24 16:32N 37°57' E 023°39'0 0.0
2016-Aug-24 15:33N 37°57' E 023°39'2826.8
2016-Aug-24 14:30N 37°30' E 023°27'1211.5
2016-Aug-24 13:30N 37°19' E 023°21'3 2.7
2016-Aug-24 12:19N 37°22' E 023°20'1013.2
2016-Aug-24 11:32N 37°29' E 023°30'2121.4
2016-Aug-24 10:34N 37°49' E 023°35'8 7.5
2016-Aug-24 09:33N 37°57' E 023°39'20 6.1
2016-Aug-24 06:11N 37°36' E 023°34'2012.2
2016-Aug-24 04:30N 37°57' E 023°39'0 0.0
2016-Aug-24 03:33N 37°57' E 023°39'0 0.0
2016-Aug-24 02:33N 37°57' E 023°39'0 0.0
2016-Aug-24 01:33N 37°57' E 023°39'0 0.0
2016-Aug-24 00:33N 37°57' E 023°39'0 0.0
2016-Aug-23 23:33N 37°57' E 023°39'0 0.0
2016-Aug-23 22:33N 37°57' E 023°39'0 0.0
2016-Aug-23 21:33N 37°57' E 023°39'0 0.0
2016-Aug-23 20:33N 37°57' E 023°39'0 0.0
2016-Aug-23 19:33N 37°57' E 023°39'0 0.0
2016-Aug-23 18:33N 37°57' E 023°39'0 0.0
2016-Aug-23 17:33N 37°57' E 023°39'0 0.0
2016-Aug-23 16:30N 37°57' E 023°39'0 0.0
2016-Aug-23 15:33N 37°57' E 023°39'2826.7
2016-Aug-23 14:30N 37°30' E 023°27'9 4.2
2016-Aug-23 12:18N 37°22' E 023°21'1012.9
2016-Aug-23 11:32N 37°29' E 023°29'2222.1
2016-Aug-23 10:33N 37°50' E 023°36'6 6.1
2016-Aug-23 09:34N 37°56' E 023°38'22 6.6
2016-Aug-23 06:17N 37°35' E 023°34'2229.4
2016-Aug-23 05:32N 37°57' E 023°39'0 0.0
2016-Aug-23 03:08N 37°57' E 023°39'0 0.0
2016-Aug-23 00:26N 37°57' E 023°39'0 0.0
2016-Aug-22 23:32N 37°57' E 023°39'0 0.0
2016-Aug-22 22:32N 37°57' E 023°39'0 0.0
2016-Aug-22 21:26N 37°57' E 023°39'0 0.0
2016-Aug-22 20:32N 37°57' E 023°39'0 0.0
2016-Aug-22 19:32N 37°57' E 023°39'0 0.0
2016-Aug-22 18:32N 37°57' E 023°39'0 0.0
2016-Aug-22 17:32N 37°57' E 023°39'0 0.0
2016-Aug-22 16:32N 37°57' E 023°39'0 0.0
2016-Aug-22 15:33N 37°57' E 023°39'2827.7
2016-Aug-22 14:33N 37°30' E 023°27'9 3.9
2016-Aug-22 12:17N 37°23' E 023°21'912.6
2016-Aug-22 11:33N 37°29' E 023°29'2121.4
2016-Aug-22 10:34N 37°50' E 023°36'7 7.2
2016-Aug-22 09:33N 37°57' E 023°39'2928.2
2016-Aug-22 08:32N 37°28' E 023°33'2 1.0
2016-Aug-22 06:28N 37°26' E 023°33'3133.8
2016-Aug-22 05:33N 37°56' E 023°38'0 0.4
2016-Aug-22 04:33N 37°57' E 023°39'0 0.0
2016-Aug-22 03:33N 37°57' E 023°39'0 0.0
2016-Aug-22 02:33N 37°57' E 023°39'0 0.0
2016-Aug-22 01:33N 37°57' E 023°39'0 0.0
2016-Aug-22 00:33N 37°57' E 023°39'0 0.0
2016-Aug-21 23:33N 37°57' E 023°39'0 0.0
2016-Aug-21 22:27N 37°57' E 023°39'0 0.0
2016-Aug-21 21:33N 37°57' E 023°39'0 0.0
2016-Aug-21 20:33N 37°57' E 023°39'0 0.0
2016-Aug-21 19:33N 37°57' E 023°39'7 7.5
2016-Aug-21 18:34N 37°50' E 023°36'2929.2
2016-Aug-21 17:34N 37°21' E 023°28'2 1.5
2016-Aug-21 16:21N 37°21' E 023°26'2126.0
2016-Aug-21 15:33N 37°41' E 023°33'1716.5
2016-Aug-21 14:33N 37°57' E 023°39'2423.7
2016-Aug-21 13:33N 37°35' E 023°27'1413.4
2016-Aug-21 12:33N 37°21' E 023°28'6 4.0
2016-Aug-21 11:04N 37°19' E 023°21'1218.4
2016-Aug-21 10:25N 37°27' E 023°33'1416.8
2016-Aug-21 09:33N 37°41' E 023°32'1616.3
2016-Aug-21 08:33N 37°57' E 023°39'0 0.0
2016-Aug-21 07:28N 37°57' E 023°39'0 0.0
2016-Aug-21 06:28N 37°57' E 023°39'0 0.0
2016-Aug-21 05:31N 37°57' E 023°39'0 0.0
2016-Aug-21 04:31N 37°57' E 023°39'0 0.0
2016-Aug-21 03:31N 37°57' E 023°39'0 0.0
2016-Aug-21 02:28N 37°57' E 023°39'0 0.0
2016-Aug-21 01:31N 37°57' E 023°39'0 0.0
2016-Aug-21 00:31N 37°57' E 023°39'0 0.0
2016-Aug-20 23:31N 37°57' E 023°39'0 0.0
2016-Aug-20 22:31N 37°57' E 023°39'0 0.0
2016-Aug-20 21:28N 37°57' E 023°39'0 0.0
2016-Aug-20 20:28N 37°57' E 023°39'0 0.0
2016-Aug-20 19:31N 37°57' E 023°39'0 0.0
2016-Aug-20 18:28N 37°57' E 023°39'0 0.0
2016-Aug-20 17:31N 37°57' E 023°39'0 0.0
2016-Aug-20 16:31N 37°57' E 023°39'0 0.0
2016-Aug-20 15:33N 37°57' E 023°39'2827.5
2016-Aug-20 14:32N 37°30' E 023°27'9 2.6
2016-Aug-20 11:10N 37°37' E 023°34'2033.1
2016-Aug-20 10:33N 37°56' E 023°38'0 0.2
2016-Aug-20 09:33N 37°57' E 023°38'3630.9
2016-Aug-20 08:23N 37°21' E 023°28'13 6.4
2016-Aug-20 06:17N 37°34' E 023°34'2331.3
2016-Aug-20 05:33N 37°56' E 023°38'0 0.3
2016-Aug-20 04:29N 37°57' E 023°39'0 0.0
2016-Aug-20 03:29N 37°57' E 023°39'0 0.0
2016-Aug-20 02:32N 37°57' E 023°39'0 0.0
2016-Aug-20 01:32N 37°57' E 023°39'0 0.0
2016-Aug-20 00:32N 37°57' E 023°39'0 0.0
2016-Aug-19 23:29N 37°57' E 023°39'0 0.0
2016-Aug-19 22:29N 37°57' E 023°39'0 0.0
2016-Aug-19 21:32N 37°57' E 023°39'0 0.0
2016-Aug-19 20:29N 37°57' E 023°39'0 0.0
2016-Aug-19 19:32N 37°57' E 023°39'1010.5
2016-Aug-19 18:34N 37°47' E 023°36'2726.5
2016-Aug-19 17:33N 37°21' E 023°26'8 4.0
2016-Aug-19 15:28N 37°27' E 023°33'3032.4
2016-Aug-19 14:33N 37°56' E 023°38'1 0.5
2016-Aug-19 13:34N 37°57' E 023°39'2823.6
2016-Aug-19 12:22N 37°30' E 023°27'4 3.6
2016-Aug-19 11:23N 37°28' E 023°31'1417.0
2016-Aug-19 10:33N 37°42' E 023°32'1615.5
2016-Aug-19 09:33N 37°57' E 023°39'0 0.0
2016-Aug-19 08:31N 37°57' E 023°39'0 0.0
2016-Aug-19 07:28N 37°57' E 023°39'0 0.0
2016-Aug-19 06:31N 37°57' E 023°39'0 0.0
2016-Aug-19 05:28N 37°57' E 023°39'0 0.0
2016-Aug-19 04:25N 37°57' E 023°39'0 0.0
2016-Aug-19 03:31N 37°57' E 023°39'0 0.0
2016-Aug-19 02:31N 37°57' E 023°39'0 0.0
2016-Aug-19 01:28N 37°57' E 023°39'0 0.0
2016-Aug-19 00:31N 37°57' E 023°39'0 0.0
2016-Aug-18 23:31N 37°57' E 023°39'0 0.0
2016-Aug-18 22:31N 37°57' E 023°39'0 0.0
2016-Aug-18 21:31N 37°57' E 023°39'0 0.0
2016-Aug-18 20:31N 37°57' E 023°39'0 0.0
2016-Aug-18 19:31N 37°57' E 023°39'0 0.0
2016-Aug-18 18:28N 37°57' E 023°39'0 0.0
2016-Aug-18 17:25N 37°57' E 023°39'0 0.0
2016-Aug-18 16:28N 37°57' E 023°39'0 0.0
2016-Aug-18 15:33N 37°57' E 023°39'2827.5
2016-Aug-18 14:32N 37°30' E 023°27'9 3.8
2016-Aug-18 12:16N 37°22' E 023°23'912.3
2016-Aug-18 11:33N 37°29' E 023°30'2222.4
2016-Aug-18 10:33N 37°50' E 023°36'7 6.5
2016-Aug-18 09:34N 37°57' E 023°39'3431.5
2016-Aug-18 08:30N 37°24' E 023°31'3 1.6
2016-Aug-18 06:28N 37°26' E 023°33'3133.5
2016-Aug-18 05:34N 37°56' E 023°38'0 0.3
2016-Aug-18 04:28N 37°57' E 023°39'0 0.0
2016-Aug-18 03:28N 37°57' E 023°39'0 0.0
2016-Aug-18 02:31N 37°57' E 023°39'0 0.0
2016-Aug-18 01:28N 37°57' E 023°39'0 0.0
2016-Aug-18 00:31N 37°57' E 023°39'0 0.0
2016-Aug-17 23:31N 37°57' E 023°39'0 0.0
2016-Aug-17 22:31N 37°57' E 023°39'0 0.0
2016-Aug-17 21:28N 37°57' E 023°39'0 0.0
2016-Aug-17 20:31N 37°57' E 023°39'0 0.0
2016-Aug-17 19:31N 37°57' E 023°39'0 0.0
2016-Aug-17 18:22N 37°57' E 023°39'0 0.0
2016-Aug-17 17:31N 37°57' E 023°39'0 0.0
2016-Aug-17 16:28N 37°57' E 023°39'0 0.0
2016-Aug-17 15:33N 37°57' E 023°39'2827.8
2016-Aug-17 14:33N 37°30' E 023°26'9 4.3
2016-Aug-17 12:25N 37°22' E 023°21'1010.9
2016-Aug-17 11:33N 37°29' E 023°30'2121.5
2016-Aug-17 10:34N 37°50' E 023°35'7 7.3
2016-Aug-17 09:33N 37°57' E 023°39'2827.7
2016-Aug-17 08:33N 37°29' E 023°33'4 1.9
2016-Aug-17 06:29N 37°25' E 023°32'3233.9
2016-Aug-17 05:33N 37°56' E 023°38'0 0.3
2016-Aug-17 04:28N 37°57' E 023°39'0 0.0
2016-Aug-17 03:31N 37°57' E 023°39'0 0.0
2016-Aug-17 02:31N 37°57' E 023°39'0 0.0
2016-Aug-17 01:31N 37°57' E 023°39'0 0.0
2016-Aug-17 00:31N 37°57' E 023°39'0 0.0
2016-Aug-16 23:31N 37°57' E 023°39'0 0.0
2016-Aug-16 22:28N 37°57' E 023°39'0 0.0
2016-Aug-16 21:31N 37°57' E 023°39'0 0.0
2016-Aug-16 20:28N 37°57' E 023°39'0 0.0
2016-Aug-16 19:28N 37°57' E 023°39'0 0.0
2016-Aug-16 18:31N 37°57' E 023°39'0 0.0
2016-Aug-16 17:31N 37°57' E 023°39'0 0.0
2016-Aug-16 16:31N 37°57' E 023°39'0 0.0
2016-Aug-16 15:33N 37°57' E 023°39'2827.7
2016-Aug-16 14:33N 37°30' E 023°26'9 3.9
2016-Aug-16 12:15N 37°22' E 023°22'913.0
2016-Aug-16 11:33N 37°29' E 023°29'2121.1
2016-Aug-16 10:33N 37°49' E 023°36'8 7.5
2016-Aug-16 09:34N 37°57' E 023°39'  

Dump ship's entire track history